Архив погоды в Жижгине

Метеограмма Жижгин
Пятница, 22 Июня
Время местн. Темп Ветер Видим Явления Облачность нижн/средн/верх Атм. давл. Влжн Точка росы ВНГО R Сост. почвы Tg s
Напр Скр Прв ур.ст ур.м изм
21:00 +11.6° В 5 10 10 км ливневый дождь облачно 748 750 -0.9 92% +10.4° 600 м - - - -
18:00 +9.8° В 6 12 4 км слабый ливневый дождь облачно 749 751 -0.7 90% +8.3° 600 м 2 - - -
15:00 +11.5° В 9 14 10 км небо без изменений {ливневые осадки} облачно 750 751 -1.7 79% +7.9° 600 м - - - -
12:00 +14.2° В 6 - 4 км слабый ливневый дождь преимущественно облачно 751 753 -1.1 60% +6.6° 600 м - - - -
09:00 +11.7° В 3 - 20 км - преимущественно облачно 752 754 -0.1 77% +7.8° более 2.5 км - - - -
06:00 +14.2° Ю 3 - 20 км - переменная облачность 753 754 +0.3 56% +5.6° более 2.5 км - Влажная (без луж) - -
03:00 +11.2° Ю 4 - 20 км - переменная облачность 752 754 +0.3 65% +4.9° более 2.5 км - - - -
00:00 +11.1° Ю,Ю-З 6 - 20 км - переменная облачность 752 754 +1 70% +5.8° - - - - -
Четверг, 21 Июня
Время местн. Темп Ветер Видим Явления Облачность нижн/средн/верх Атм. давл. Влжн Точка росы ВНГО R Сост. почвы Tg s
Напр Скр Прв ур.ст ур.м изм
21:00 +11.8° Ю-З 6 - 20 км - переменная облачность 751 753 +0.8 65% +5.4° 1 км - - - -
18:00 +13.3° Ю-З 5 - 20 км - переменная облачность 750 752 +1.1 63% +6.3° 1 км - - - -
15:00 +15.4° З 7 10 20 км - переменная облачность 749 751 +1.1 56% +6.7° 1 км - - - -
12:00 +13.1° З 5 10 20 км - переменная облачность 748 750 +1.8 73% +8.4° 1 км - - - -
09:00 +10.1° З 7 10 20 км - преимущественно облачно 746 748 +1.1 83% +7.4° 600 м - - - -
06:00 +9.3° З 7 - 20 км - преимущественно облачно 745 747 +1 88% +7.4° 600 м - Влажная (без луж) - -
03:00 +9.5° З 7 - 20 км - преимущественно облачно 744 746 +0.4 89% +7.8° 600 м - - - -
00:00 +9.5° З 8 11 10 км - преимущественно облачно 744 745 +0.7 90% +8° 600 м - - - -
Среда, 20 Июня
Время местн. Темп Ветер Видим Явления Облачность нижн/средн/верх Атм. давл. Влжн Точка росы ВНГО R Сост. почвы Tg s
Напр Скр Прв ур.ст ур.м изм
21:00 +9.5° З 8 13 10 км - преимущественно облачно 743 745 +0.9 93% +8.4° 600 м - - - -
18:00 +10.9° З 7 10 20 км - преимущественно облачно 742 744 +0.8 89% +9.1° 600 м 0 - - -
15:00 +11.7° З 3 - 10 км - преимущественно облачно 741 743 +1.1 90% +10.1° 600 м - - - -
12:00 +12.6° З,С-З 3 - 10 км - облачно 740 742 +0.5 89% +10.8° 600 м - - - -
09:00 +11.9° В 1 - 10 км - преимущественно облачно 740 741 -0.8 94% +11° 600 м - - - -
06:00 +11.1° Ю,Ю-З 1 - 10 км - облачно с прояснениями 741 742 -0.8 95% +10.4° 600 м 3 Влажная (без луж) +11° -
03:00 +9.5° С-З 4 - 10 км небо без изменений {ливневые осадки} преимущественно облачно 741 743 -1.7 95% +8.7° 600 м - - - -
00:00 +13.4° Ю,Ю-З 7 - 10 км - преимущественно облачно 743 744 -2 78% +9.6° 600 м - - - -
Вторник, 19 Июня
Время местн. Темп Ветер Видим Явления Облачность нижн/средн/верх Атм. давл. Влжн Точка росы ВНГО R Сост. почвы Tg s
Напр Скр Прв ур.ст ур.м изм
21:00 +14.7° В 4 - 20 км - преимущественно облачно 745 746 -2.1 80% +11.3° 600 м - - - -
18:00 +12.4° В 4 - 10 км - облачно с прояснениями 747 749 -2.3 93% +11.3° 600 м 0.4 - - -